首页
METAR-TAF:

METAR-TAF

机场 :

富納富提國際機場

富纳富提, 圖瓦盧

纬度: 08-31S, 经度: 179-13E, 海拔: 1米

当前天气观测

该预报发布于22分钟前的05:00 UTC
风速4节,风向东南
温度 31°C
湿度 71%
气压 1008 hPa
能见度10公里或以上
少量云层高于1900英尺, 塔状积云.
散云层高于11000英尺
多云层高于31000英尺

METAR: NGFU 190500Z 13004KT 9999 FEW019TCU SCT110 BKN310 31/25 Q1008

时间: 17:22 (05:22 UTC)

预报

该预报发布于6小时和10分钟前的23:12 UTC
预报有效从19日的 00点(UTC)到 19日的 24点(UTC)
风速9节,风向东转东南
能见度10公里或以上
散云层高于1700英尺
多云层高于10000英尺

TAF: NGFU 182312Z 1900/1924 11009KT 9999 SCT017 BKN100

超过4000个机场的气象观测和天气预报(METAR&TAF报告)。

可查询的气象台以黄色和红色小点在地图上表示。

将鼠标移到小点上方,可查看气象台名称。

然后点击查看天气观测和预报。

如需切换地图:点击带黑十字的绿色按钮放大地图;点击带横线的绿色按钮缩小地图;或者点击绿色箭头查看邻近地区的地图。


METAR-TAF: